sensor_id;sensor_type;location;lat;lon;timestamp;P1;durP1;ratioP1;P2;durP2;ratioP2
14847;SDS011;7516;43.570;1.448;2022-12-05T00:00:49;35.77;;;24.90;;
14847;SDS011;7516;43.570;1.448;2022-12-05T00:03:19;36.17;;;23.13;;
14847;SDS011;7516;43.570;1.448;2022-12-05T00:05:50;34.17;;;22.47;;
14847;SDS011;7516;43.570;1.448;2022-12-05T00:08:19;31.83;;;21.03;;
14847;SDS011;7516;43.570;1.448;2022-12-05T00:10:46;32.20;;;22.20;;
14847;SDS011;7516;43.570;1.448;2022-12-05T00:13:17;28.47;;;20.07;;
14847;SDS011;7516;43.570;1.448;2022-12-05T00:15:47;32.93;;;21.37;;
14847;SDS011;7516;43.570;1.448;2022-12-05T00:18:15;32.77;;;20.67;;
14847;SDS011;7516;43.570;1.448;2022-12-05T00:20:44;33.73;;;21.20;;
14847;SDS011;7516;43.570;1.448;2022-12-05T00:23:14;30.60;;;20.40;;
14847;SDS011;7516;43.570;1.448;2022-12-05T00:25:41;29.63;;;19.17;;
14847;SDS011;7516;43.570;1.448;2022-12-05T00:28:09;28.83;;;18.97;;
14847;SDS011;7516;43.570;1.448;2022-12-05T00:30:38;32.83;;;20.40;;
14847;SDS011;7516;43.570;1.448;2022-12-05T00:33:06;29.60;;;18.87;;
14847;SDS011;7516;43.570;1.448;2022-12-05T00:35:33;31.37;;;19.00;;
14847;SDS011;7516;43.570;1.448;2022-12-05T00:38:01;30.03;;;18.73;;
14847;SDS011;7516;43.570;1.448;2022-12-05T00:40:30;29.10;;;18.77;;
14847;SDS011;7516;43.570;1.448;2022-12-05T00:42:59;28.43;;;17.80;;
14847;SDS011;7516;43.570;1.448;2022-12-05T00:45:27;28.43;;;18.10;;
14847;SDS011;7516;43.570;1.448;2022-12-05T00:47:54;29.53;;;18.37;;
14847;SDS011;7516;43.570;1.448;2022-12-05T00:50:22;28.27;;;18.80;;
14847;SDS011;7516;43.570;1.448;2022-12-05T00:52:52;27.37;;;18.47;;
14847;SDS011;7516;43.570;1.448;2022-12-05T00:55:23;27.57;;;18.23;;
14847;SDS011;7516;43.570;1.448;2022-12-05T00:57:55;28.37;;;18.07;;
14847;SDS011;7516;43.570;1.448;2022-12-05T01:00:22;29.40;;;18.50;;
14847;SDS011;7516;43.570;1.448;2022-12-05T01:02:50;25.60;;;17.33;;
14847;SDS011;7516;43.570;1.448;2022-12-05T01:05:23;28.47;;;18.13;;
14847;SDS011;7516;43.570;1.448;2022-12-05T01:07:54;26.40;;;18.13;;
14847;SDS011;7516;43.570;1.448;2022-12-05T01:10:24;26.27;;;17.53;;
14847;SDS011;7516;43.570;1.448;2022-12-05T01:12:52;25.37;;;17.07;;
14847;SDS011;7516;43.570;1.448;2022-12-05T01:15:20;24.17;;;16.80;;
14847;SDS011;7516;43.570;1.448;2022-12-05T01:17:53;23.70;;;15.90;;
14847;SDS011;7516;43.570;1.448;2022-12-05T01:20:21;24.67;;;16.40;;
14847;SDS011;7516;43.570;1.448;2022-12-05T01:22:48;23.63;;;16.33;;
14847;SDS011;7516;43.570;1.448;2022-12-05T01:25:19;26.47;;;17.17;;
14847;SDS011;7516;43.570;1.448;2022-12-05T01:27:50;24.83;;;15.93;;
14847;SDS011;7516;43.570;1.448;2022-12-05T01:30:19;24.53;;;16.70;;
14847;SDS011;7516;43.570;1.448;2022-12-05T01:32:47;27.30;;;17.30;;
14847;SDS011;7516;43.570;1.448;2022-12-05T01:35:15;23.63;;;15.30;;
14847;SDS011;7516;43.570;1.448;2022-12-05T01:37:42;22.93;;;14.60;;
14847;SDS011;7516;43.570;1.448;2022-12-05T01:40:10;23.40;;;15.30;;
14847;SDS011;7516;43.570;1.448;2022-12-05T01:42:38;23.57;;;14.83;;
14847;SDS011;7516;43.570;1.448;2022-12-05T01:45:07;21.17;;;15.00;;
14847;SDS011;7516;43.570;1.448;2022-12-05T01:47:41;22.83;;;14.80;;
14847;SDS011;7516;43.570;1.448;2022-12-05T01:50:09;24.60;;;15.77;;
14847;SDS011;7516;43.570;1.448;2022-12-05T01:52:38;24.07;;;15.77;;
14847;SDS011;7516;43.570;1.448;2022-12-05T01:55:09;23.10;;;15.03;;
14847;SDS011;7516;43.570;1.448;2022-12-05T01:57:40;25.43;;;15.57;;
14847;SDS011;7516;43.570;1.448;2022-12-05T02:00:09;22.70;;;14.73;;
14847;SDS011;7516;43.570;1.448;2022-12-05T02:02:41;22.57;;;14.27;;
14847;SDS011;7516;43.570;1.448;2022-12-05T02:05:12;22.30;;;15.00;;
14847;SDS011;7516;43.570;1.448;2022-12-05T02:07:43;22.10;;;14.40;;
14847;SDS011;7516;43.570;1.448;2022-12-05T02:10:12;21.57;;;13.87;;
14847;SDS011;7516;43.570;1.448;2022-12-05T02:12:40;23.37;;;15.27;;
14847;SDS011;7516;43.570;1.448;2022-12-05T02:15:18;20.87;;;14.43;;
14847;SDS011;7516;43.570;1.448;2022-12-05T02:17:56;20.93;;;14.20;;
14847;SDS011;7516;43.570;1.448;2022-12-05T02:20:37;21.20;;;13.73;;
14847;SDS011;7516;43.570;1.448;2022-12-05T02:26:32;22.13;;;13.83;;
14847;SDS011;7516;43.570;1.448;2022-12-05T02:32:23;19.23;;;13.23;;
14847;SDS011;7516;43.570;1.448;2022-12-05T02:35:02;18.83;;;13.00;;
14847;SDS011;7516;43.570;1.448;2022-12-05T02:37:39;19.80;;;13.40;;
14847;SDS011;7516;43.570;1.448;2022-12-05T02:40:18;22.07;;;13.57;;
14847;SDS011;7516;43.570;1.448;2022-12-05T02:42:56;20.57;;;14.07;;
14847;SDS011;7516;43.570;1.448;2022-12-05T02:45:31;21.17;;;14.03;;
14847;SDS011;7516;43.570;1.448;2022-12-05T02:48:02;21.80;;;14.23;;
14847;SDS011;7516;43.570;1.448;2022-12-05T02:50:32;21.60;;;14.07;;
14847;SDS011;7516;43.570;1.448;2022-12-05T02:53:03;21.07;;;13.93;;
14847;SDS011;7516;43.570;1.448;2022-12-05T02:55:34;22.33;;;14.20;;
14847;SDS011;7516;43.570;1.448;2022-12-05T02:58:04;22.67;;;13.90;;
14847;SDS011;7516;43.570;1.448;2022-12-05T03:00:39;20.57;;;13.30;;
14847;SDS011;7516;43.570;1.448;2022-12-05T03:03:11;22.23;;;13.83;;
14847;SDS011;7516;43.570;1.448;2022-12-05T03:05:44;22.27;;;13.40;;
14847;SDS011;7516;43.570;1.448;2022-12-05T03:08:17;19.27;;;13.70;;
14847;SDS011;7516;43.570;1.448;2022-12-05T03:10:48;19.03;;;12.97;;
14847;SDS011;7516;43.570;1.448;2022-12-05T03:13:19;21.67;;;12.60;;
14847;SDS011;7516;43.570;1.448;2022-12-05T03:15:52;19.17;;;12.97;;
14847;SDS011;7516;43.570;1.448;2022-12-05T03:18:27;20.13;;;13.77;;
14847;SDS011;7516;43.570;1.448;2022-12-05T03:20:59;20.27;;;13.60;;
14847;SDS011;7516;43.570;1.448;2022-12-05T03:23:31;20.57;;;13.40;;
14847;SDS011;7516;43.570;1.448;2022-12-05T03:26:04;20.20;;;13.23;;
14847;SDS011;7516;43.570;1.448;2022-12-05T03:28:48;21.07;;;12.77;;
14847;SDS011;7516;43.570;1.448;2022-12-05T03:31:23;18.90;;;12.63;;
14847;SDS011;7516;43.570;1.448;2022-12-05T03:34:00;19.67;;;12.73;;
14847;SDS011;7516;43.570;1.448;2022-12-05T03:36:33;19.00;;;12.50;;
14847;SDS011;7516;43.570;1.448;2022-12-05T03:39:07;18.80;;;13.03;;
14847;SDS011;7516;43.570;1.448;2022-12-05T03:41:39;17.93;;;11.87;;
14847;SDS011;7516;43.570;1.448;2022-12-05T03:44:11;20.37;;;13.70;;
14847;SDS011;7516;43.570;1.448;2022-12-05T03:46:45;17.90;;;12.13;;
14847;SDS011;7516;43.570;1.448;2022-12-05T03:49:18;19.87;;;13.03;;
14847;SDS011;7516;43.570;1.448;2022-12-05T03:51:51;18.00;;;12.03;;
14847;SDS011;7516;43.570;1.448;2022-12-05T03:54:23;20.60;;;12.47;;
14847;SDS011;7516;43.570;1.448;2022-12-05T03:56:53;19.73;;;11.87;;
14847;SDS011;7516;43.570;1.448;2022-12-05T03:59:29;18.43;;;12.10;;
14847;SDS011;7516;43.570;1.448;2022-12-05T04:02:04;19.70;;;12.23;;
14847;SDS011;7516;43.570;1.448;2022-12-05T04:04:39;17.37;;;11.77;;
14847;SDS011;7516;43.570;1.448;2022-12-05T04:07:13;17.97;;;12.93;;
14847;SDS011;7516;43.570;1.448;2022-12-05T04:09:44;20.57;;;13.37;;
14847;SDS011;7516;43.570;1.448;2022-12-05T04:12:18;19.27;;;13.17;;
14847;SDS011;7516;43.570;1.448;2022-12-05T04:14:50;19.70;;;12.87;;
14847;SDS011;7516;43.570;1.448;2022-12-05T04:17:24;20.00;;;12.73;;
14847;SDS011;7516;43.570;1.448;2022-12-05T04:19:57;23.40;;;13.60;;
14847;SDS011;7516;43.570;1.448;2022-12-05T04:22:49;21.00;;;13.40;;
14847;SDS011;7516;43.570;1.448;2022-12-05T04:25:17;21.07;;;13.97;;
14847;SDS011;7516;43.570;1.448;2022-12-05T04:28:04;22.90;;;14.13;;
14847;SDS011;7516;43.570;1.448;2022-12-05T04:30:40;21.27;;;13.87;;
14847;SDS011;7516;43.570;1.448;2022-12-05T04:33:15;22.53;;;13.93;;
14847;SDS011;7516;43.570;1.448;2022-12-05T04:35:51;21.47;;;13.67;;
14847;SDS011;7516;43.570;1.448;2022-12-05T04:38:23;20.40;;;13.13;;
14847;SDS011;7516;43.570;1.448;2022-12-05T04:40:56;20.23;;;13.17;;
14847;SDS011;7516;43.570;1.448;2022-12-05T04:43:25;19.33;;;13.43;;
14847;SDS011;7516;43.570;1.448;2022-12-05T04:45:59;21.37;;;13.17;;
14847;SDS011;7516;43.570;1.448;2022-12-05T04:48:31;20.83;;;12.77;;
14847;SDS011;7516;43.570;1.448;2022-12-05T04:51:04;21.73;;;13.60;;
14847;SDS011;7516;43.570;1.448;2022-12-05T04:53:38;19.63;;;13.07;;
14847;SDS011;7516;43.570;1.448;2022-12-05T04:56:09;18.63;;;12.73;;
14847;SDS011;7516;43.570;1.448;2022-12-05T04:58:41;20.57;;;13.03;;
14847;SDS011;7516;43.570;1.448;2022-12-05T05:01:10;18.83;;;11.93;;
14847;SDS011;7516;43.570;1.448;2022-12-05T05:03:44;18.93;;;12.73;;
14847;SDS011;7516;43.570;1.448;2022-12-05T05:06:16;21.27;;;13.30;;
14847;SDS011;7516;43.570;1.448;2022-12-05T05:08:47;18.80;;;12.93;;
14847;SDS011;7516;43.570;1.448;2022-12-05T05:11:16;20.07;;;13.30;;
14847;SDS011;7516;43.570;1.448;2022-12-05T05:13:45;18.77;;;12.43;;
14847;SDS011;7516;43.570;1.448;2022-12-05T05:16:14;19.27;;;12.73;;
14847;SDS011;7516;43.570;1.448;2022-12-05T05:18:45;18.20;;;12.17;;
14847;SDS011;7516;43.570;1.448;2022-12-05T05:21:14;19.53;;;12.43;;
14847;SDS011;7516;43.570;1.448;2022-12-05T05:23:44;17.60;;;11.43;;
14847;SDS011;7516;43.570;1.448;2022-12-05T05:26:11;17.63;;;12.13;;
14847;SDS011;7516;43.570;1.448;2022-12-05T05:28:39;19.07;;;12.30;;
14847;SDS011;7516;43.570;1.448;2022-12-05T05:31:07;18.50;;;11.60;;
14847;SDS011;7516;43.570;1.448;2022-12-05T05:33:38;17.87;;;12.07;;
14847;SDS011;7516;43.570;1.448;2022-12-05T05:36:11;18.67;;;12.30;;
14847;SDS011;7516;43.570;1.448;2022-12-05T05:38:40;16.57;;;10.97;;
14847;SDS011;7516;43.570;1.448;2022-12-05T05:41:11;17.43;;;11.43;;
14847;SDS011;7516;43.570;1.448;2022-12-05T05:43:40;18.80;;;12.10;;
14847;SDS011;7516;43.570;1.448;2022-12-05T05:46:08;18.13;;;11.83;;
14847;SDS011;7516;43.570;1.448;2022-12-05T05:48:37;17.50;;;11.77;;
14847;SDS011;7516;43.570;1.448;2022-12-05T05:51:05;17.00;;;10.97;;
14847;SDS011;7516;43.570;1.448;2022-12-05T05:53:38;18.90;;;12.47;;
14847;SDS011;7516;43.570;1.448;2022-12-05T05:56:07;18.93;;;11.90;;
14847;SDS011;7516;43.570;1.448;2022-12-05T05:58:36;18.80;;;11.73;;
14847;SDS011;7516;43.570;1.448;2022-12-05T06:01:05;16.23;;;11.40;;
14847;SDS011;7516;43.570;1.448;2022-12-05T06:03:34;17.70;;;11.67;;
14847;SDS011;7516;43.570;1.448;2022-12-05T06:06:04;18.33;;;11.57;;
14847;SDS011;7516;43.570;1.448;2022-12-05T06:08:38;17.03;;;10.83;;
14847;SDS011;7516;43.570;1.448;2022-12-05T06:11:09;16.57;;;11.03;;
14847;SDS011;7516;43.570;1.448;2022-12-05T06:13:39;16.30;;;11.40;;
14847;SDS011;7516;43.570;1.448;2022-12-05T06:16:11;20.80;;;11.30;;
14847;SDS011;7516;43.570;1.448;2022-12-05T06:18:40;15.87;;;10.80;;
14847;SDS011;7516;43.570;1.448;2022-12-05T06:21:11;17.77;;;11.23;;
14847;SDS011;7516;43.570;1.448;2022-12-05T06:23:40;15.43;;;10.87;;
14847;SDS011;7516;43.570;1.448;2022-12-05T06:26:09;17.63;;;11.27;;
14847;SDS011;7516;43.570;1.448;2022-12-05T06:28:38;19.23;;;11.83;;
14847;SDS011;7516;43.570;1.448;2022-12-05T06:31:06;20.40;;;13.17;;
14847;SDS011;7516;43.570;1.448;2022-12-05T06:33:37;21.73;;;12.77;;
14847;SDS011;7516;43.570;1.448;2022-12-05T06:36:09;18.97;;;12.10;;
14847;SDS011;7516;43.570;1.448;2022-12-05T06:38:40;18.20;;;11.10;;
14847;SDS011;7516;43.570;1.448;2022-12-05T06:41:08;18.50;;;11.93;;
14847;SDS011;7516;43.570;1.448;2022-12-05T06:43:38;16.57;;;10.87;;
14847;SDS011;7516;43.570;1.448;2022-12-05T06:46:07;16.87;;;11.17;;
14847;SDS011;7516;43.570;1.448;2022-12-05T06:48:35;18.03;;;11.20;;
14847;SDS011;7516;43.570;1.448;2022-12-05T06:51:04;18.67;;;11.73;;
14847;SDS011;7516;43.570;1.448;2022-12-05T06:53:34;17.03;;;10.83;;
14847;SDS011;7516;43.570;1.448;2022-12-05T06:56:04;16.83;;;12.13;;
14847;SDS011;7516;43.570;1.448;2022-12-05T06:58:32;20.53;;;12.43;;
14847;SDS011;7516;43.570;1.448;2022-12-05T07:01:00;18.60;;;12.77;;
14847;SDS011;7516;43.570;1.448;2022-12-05T07:03:46;17.27;;;11.43;;
14847;SDS011;7516;43.570;1.448;2022-12-05T07:06:14;18.40;;;11.30;;
14847;SDS011;7516;43.570;1.448;2022-12-05T07:08:42;19.00;;;11.97;;
14847;SDS011;7516;43.570;1.448;2022-12-05T07:11:12;17.20;;;11.37;;
14847;SDS011;7516;43.570;1.448;2022-12-05T07:13:40;16.67;;;11.53;;
14847;SDS011;7516;43.570;1.448;2022-12-05T07:16:10;18.13;;;12.40;;
14847;SDS011;7516;43.570;1.448;2022-12-05T07:18:38;17.00;;;11.63;;
14847;SDS011;7516;43.570;1.448;2022-12-05T07:21:06;18.70;;;11.73;;
14847;SDS011;7516;43.570;1.448;2022-12-05T07:23:38;17.77;;;11.03;;
14847;SDS011;7516;43.570;1.448;2022-12-05T07:26:06;19.07;;;11.67;;
14847;SDS011;7516;43.570;1.448;2022-12-05T07:28:36;20.07;;;11.50;;
14847;SDS011;7516;43.570;1.448;2022-12-05T07:31:04;17.33;;;11.57;;
14847;SDS011;7516;43.570;1.448;2022-12-05T07:33:33;18.17;;;12.37;;
14847;SDS011;7516;43.570;1.448;2022-12-05T07:36:01;18.73;;;12.53;;
14847;SDS011;7516;43.570;1.448;2022-12-05T07:38:31;17.33;;;11.63;;
14847;SDS011;7516;43.570;1.448;2022-12-05T07:40:59;18.73;;;13.10;;
14847;SDS011;7516;43.570;1.448;2022-12-05T07:43:29;18.47;;;11.67;;
14847;SDS011;7516;43.570;1.448;2022-12-05T07:46:01;20.07;;;12.03;;
14847;SDS011;7516;43.570;1.448;2022-12-05T07:48:29;18.43;;;12.67;;
14847;SDS011;7516;43.570;1.448;2022-12-05T07:51:00;19.07;;;11.47;;
14847;SDS011;7516;43.570;1.448;2022-12-05T07:53:29;16.53;;;11.17;;
14847;SDS011;7516;43.570;1.448;2022-12-05T07:55:58;15.47;;;10.77;;
14847;SDS011;7516;43.570;1.448;2022-12-05T07:58:27;14.73;;;10.13;;
14847;SDS011;7516;43.570;1.448;2022-12-05T08:00:55;14.80;;;9.33;;
14847;SDS011;7516;43.570;1.448;2022-12-05T08:03:24;15.37;;;10.13;;
14847;SDS011;7516;43.570;1.448;2022-12-05T08:05:51;14.83;;;9.57;;
14847;SDS011;7516;43.570;1.448;2022-12-05T08:08:19;15.50;;;10.27;;
14847;SDS011;7516;43.570;1.448;2022-12-05T08:10:47;15.80;;;9.90;;
14847;SDS011;7516;43.570;1.448;2022-12-05T08:13:14;15.07;;;10.53;;
14847;SDS011;7516;43.570;1.448;2022-12-05T08:15:41;16.40;;;10.63;;
14847;SDS011;7516;43.570;1.448;2022-12-05T08:18:12;13.83;;;10.40;;
14847;SDS011;7516;43.570;1.448;2022-12-05T08:20:41;16.17;;;10.97;;
14847;SDS011;7516;43.570;1.448;2022-12-05T08:23:08;15.07;;;11.00;;
14847;SDS011;7516;43.570;1.448;2022-12-05T08:25:36;16.13;;;11.13;;
14847;SDS011;7516;43.570;1.448;2022-12-05T08:28:03;16.87;;;10.77;;
14847;SDS011;7516;43.570;1.448;2022-12-05T08:30:32;17.00;;;11.47;;
14847;SDS011;7516;43.570;1.448;2022-12-05T08:32:59;18.33;;;11.07;;
14847;SDS011;7516;43.570;1.448;2022-12-05T08:35:27;15.73;;;11.30;;
14847;SDS011;7516;43.570;1.448;2022-12-05T08:37:56;15.37;;;10.43;;
14847;SDS011;7516;43.570;1.448;2022-12-05T08:40:23;17.87;;;11.23;;
14847;SDS011;7516;43.570;1.448;2022-12-05T08:42:51;17.20;;;10.10;;
14847;SDS011;7516;43.570;1.448;2022-12-05T08:45:18;16.80;;;11.50;;
14847;SDS011;7516;43.570;1.448;2022-12-05T08:47:46;16.70;;;11.17;;
14847;SDS011;7516;43.570;1.448;2022-12-05T08:50:13;16.87;;;11.07;;
14847;SDS011;7516;43.570;1.448;2022-12-05T08:52:41;16.23;;;10.53;;
14847;SDS011;7516;43.570;1.448;2022-12-05T08:55:10;16.70;;;10.83;;
14847;SDS011;7516;43.570;1.448;2022-12-05T08:57:37;19.60;;;12.77;;
14847;SDS011;7516;43.570;1.448;2022-12-05T09:00:05;15.97;;;11.43;;
14847;SDS011;7516;43.570;1.448;2022-12-05T09:02:34;18.50;;;11.67;;
14847;SDS011;7516;43.570;1.448;2022-12-05T09:05:01;22.77;;;12.33;;
14847;SDS011;7516;43.570;1.448;2022-12-05T09:07:29;15.33;;;10.90;;
14847;SDS011;7516;43.570;1.448;2022-12-05T09:09:56;16.33;;;10.93;;
14847;SDS011;7516;43.570;1.448;2022-12-05T09:12:25;12.93;;;8.70;;
14847;SDS011;7516;43.570;1.448;2022-12-05T09:14:53;14.60;;;9.57;;
14847;SDS011;7516;43.570;1.448;2022-12-05T09:17:20;12.87;;;8.60;;
14847;SDS011;7516;43.570;1.448;2022-12-05T09:19:49;14.50;;;9.13;;
14847;SDS011;7516;43.570;1.448;2022-12-05T09:22:20;14.20;;;8.93;;
14847;SDS011;7516;43.570;1.448;2022-12-05T09:24:50;12.57;;;8.63;;
14847;SDS011;7516;43.570;1.448;2022-12-05T09:27:18;11.07;;;8.03;;
14847;SDS011;7516;43.570;1.448;2022-12-05T09:29:47;14.57;;;8.20;;
14847;SDS011;7516;43.570;1.448;2022-12-05T09:32:14;11.93;;;7.87;;
14847;SDS011;7516;43.570;1.448;2022-12-05T09:34:42;15.23;;;8.37;;
14847;SDS011;7516;43.570;1.448;2022-12-05T09:37:10;13.60;;;8.27;;
14847;SDS011;7516;43.570;1.448;2022-12-05T09:39:37;13.67;;;8.37;;
14847;SDS011;7516;43.570;1.448;2022-12-05T09:42:08;11.70;;;7.23;;
14847;SDS011;7516;43.570;1.448;2022-12-05T09:45:03;12.07;;;8.10;;
14847;SDS011;7516;43.570;1.448;2022-12-05T09:47:41;11.37;;;8.10;;
14847;SDS011;7516;43.570;1.448;2022-12-05T09:50:17;13.80;;;8.20;;
14847;SDS011;7516;43.570;1.448;2022-12-05T09:52:53;12.73;;;8.23;;
14847;SDS011;7516;43.570;1.448;2022-12-05T09:55:28;14.97;;;8.57;;
14847;SDS011;7516;43.570;1.448;2022-12-05T09:58:03;10.20;;;6.73;;
14847;SDS011;7516;43.570;1.448;2022-12-05T10:00:41;15.23;;;7.13;;
14847;SDS011;7516;43.570;1.448;2022-12-05T10:03:11;9.63;;;6.53;;
14847;SDS011;7516;43.570;1.448;2022-12-05T10:05:50;10.40;;;7.47;;
14847;SDS011;7516;43.570;1.448;2022-12-05T10:08:28;11.67;;;7.30;;
14847;SDS011;7516;43.570;1.448;2022-12-05T10:11:02;11.47;;;7.23;;
14847;SDS011;7516;43.570;1.448;2022-12-05T10:13:39;14.67;;;7.67;;
14847;SDS011;7516;43.570;1.448;2022-12-05T10:16:21;11.73;;;7.33;;
14847;SDS011;7516;43.570;1.448;2022-12-05T10:18:57;11.87;;;7.70;;
14847;SDS011;7516;43.570;1.448;2022-12-05T10:21:29;11.20;;;8.23;;
14847;SDS011;7516;43.570;1.448;2022-12-05T10:23:59;12.70;;;8.50;;
14847;SDS011;7516;43.570;1.448;2022-12-05T10:26:28;13.90;;;8.67;;
14847;SDS011;7516;43.570;1.448;2022-12-05T10:29:02;14.20;;;9.17;;
14847;SDS011;7516;43.570;1.448;2022-12-05T10:31:37;14.07;;;9.10;;
14847;SDS011;7516;43.570;1.448;2022-12-05T10:34:09;13.53;;;9.03;;
14847;SDS011;7516;43.570;1.448;2022-12-05T10:36:43;14.17;;;9.47;;
14847;SDS011;7516;43.570;1.448;2022-12-05T10:39:20;15.00;;;9.93;;
14847;SDS011;7516;43.570;1.448;2022-12-05T10:41:47;13.10;;;9.77;;
14847;SDS011;7516;43.570;1.448;2022-12-05T10:44:15;15.97;;;10.43;;
14847;SDS011;7516;43.570;1.448;2022-12-05T10:46:44;14.80;;;9.37;;
14847;SDS011;7516;43.570;1.448;2022-12-05T10:49:12;14.77;;;9.67;;
14847;SDS011;7516;43.570;1.448;2022-12-05T10:51:39;12.77;;;8.77;;
14847;SDS011;7516;43.570;1.448;2022-12-05T10:54:12;12.80;;;9.03;;
14847;SDS011;7516;43.570;1.448;2022-12-05T10:56:43;15.30;;;10.47;;
14847;SDS011;7516;43.570;1.448;2022-12-05T10:59:12;13.17;;;8.50;;
14847;SDS011;7516;43.570;1.448;2022-12-05T11:01:47;13.83;;;9.07;;
14847;SDS011;7516;43.570;1.448;2022-12-05T11:04:21;11.43;;;8.50;;
14847;SDS011;7516;43.570;1.448;2022-12-05T11:06:53;11.10;;;7.87;;
14847;SDS011;7516;43.570;1.448;2022-12-05T11:09:26;14.63;;;9.00;;
14847;SDS011;7516;43.570;1.448;2022-12-05T11:12:05;10.43;;;7.40;;
14847;SDS011;7516;43.570;1.448;2022-12-05T11:14:52;12.43;;;7.70;;
14847;SDS011;7516;43.570;1.448;2022-12-05T11:17:29;10.50;;;7.27;;
14847;SDS011;7516;43.570;1.448;2022-12-05T11:19:57;13.60;;;7.90;;
14847;SDS011;7516;43.570;1.448;2022-12-05T11:22:29;12.83;;;8.00;;
14847;SDS011;7516;43.570;1.448;2022-12-05T11:24:58;11.10;;;7.67;;
14847;SDS011;7516;43.570;1.448;2022-12-05T11:27:26;8.40;;;6.03;;
14847;SDS011;7516;43.570;1.448;2022-12-05T11:29:57;9.67;;;5.90;;
14847;SDS011;7516;43.570;1.448;2022-12-05T11:32:28;10.80;;;7.37;;
14847;SDS011;7516;43.570;1.448;2022-12-05T11:35:00;10.80;;;7.57;;
14847;SDS011;7516;43.570;1.448;2022-12-05T11:37:43;11.60;;;7.93;;
14847;SDS011;7516;43.570;1.448;2022-12-05T11:40:16;12.40;;;7.67;;
14847;SDS011;7516;43.570;1.448;2022-12-05T11:42:57;11.73;;;7.00;;
14847;SDS011;7516;43.570;1.448;2022-12-05T11:45:46;9.73;;;6.63;;
14847;SDS011;7516;43.570;1.448;2022-12-05T11:48:41;10.17;;;5.90;;
14847;SDS011;7516;43.570;1.448;2022-12-05T11:51:27;8.63;;;6.03;;
14847;SDS011;7516;43.570;1.448;2022-12-05T11:56:59;7.63;;;4.80;;
14847;SDS011;7516;43.570;1.448;2022-12-05T12:02:30;7.77;;;5.00;;
14847;SDS011;7516;43.570;1.448;2022-12-05T12:05:13;5.70;;;4.20;;
14847;SDS011;7516;43.570;1.448;2022-12-05T12:07:52;6.53;;;4.40;;
14847;SDS011;7516;43.570;1.448;2022-12-05T12:10:28;5.63;;;3.83;;
14847;SDS011;7516;43.570;1.448;2022-12-05T12:13:09;5.60;;;4.40;;
14847;SDS011;7516;43.570;1.448;2022-12-05T12:15:57;6.10;;;4.07;;
14847;SDS011;7516;43.570;1.448;2022-12-05T12:18:39;5.50;;;4.00;;
14847;SDS011;7516;43.570;1.448;2022-12-05T12:21:30;6.10;;;4.40;;
14847;SDS011;7516;43.570;1.448;2022-12-05T12:24:10;5.77;;;3.50;;
14847;SDS011;7516;43.570;1.448;2022-12-05T12:26:47;5.90;;;4.07;;
14847;SDS011;7516;43.570;1.448;2022-12-05T12:29:24;7.27;;;3.63;;
14847;SDS011;7516;43.570;1.448;2022-12-05T12:32:07;5.73;;;3.90;;
14847;SDS011;7516;43.570;1.448;2022-12-05T12:37:55;5.57;;;3.57;;
14847;SDS011;7516;43.570;1.448;2022-12-05T12:40:38;6.33;;;4.17;;
14847;SDS011;7516;43.570;1.448;2022-12-05T12:43:13;6.13;;;4.10;;
14847;SDS011;7516;43.570;1.448;2022-12-05T12:46:07;5.23;;;3.87;;
14847;SDS011;7516;43.570;1.448;2022-12-05T12:48:56;4.87;;;3.80;;
14847;SDS011;7516;43.570;1.448;2022-12-05T12:51:34;4.53;;;3.50;;
14847;SDS011;7516;43.570;1.448;2022-12-05T12:54:11;5.43;;;3.60;;
14847;SDS011;7516;43.570;1.448;2022-12-05T12:56:51;4.40;;;3.53;;
14847;SDS011;7516;43.570;1.448;2022-12-05T12:59:31;4.57;;;3.67;;
14847;SDS011;7516;43.570;1.448;2022-12-05T13:02:13;5.30;;;3.77;;
14847;SDS011;7516;43.570;1.448;2022-12-05T13:04:49;5.97;;;3.57;;
14847;SDS011;7516;43.570;1.448;2022-12-05T13:07:23;5.67;;;3.73;;
14847;SDS011;7516;43.570;1.448;2022-12-05T13:10:02;5.60;;;3.90;;
14847;SDS011;7516;43.570;1.448;2022-12-05T13:12:38;5.17;;;3.40;;
14847;SDS011;7516;43.570;1.448;2022-12-05T13:15:09;4.43;;;3.40;;
14847;SDS011;7516;43.570;1.448;2022-12-05T13:17:41;4.53;;;3.33;;
14847;SDS011;7516;43.570;1.448;2022-12-05T13:20:13;5.33;;;3.17;;
14847;SDS011;7516;43.570;1.448;2022-12-05T13:22:42;4.37;;;2.60;;
14847;SDS011;7516;43.570;1.448;2022-12-05T13:25:14;4.63;;;3.07;;
14847;SDS011;7516;43.570;1.448;2022-12-05T13:27:51;3.97;;;3.03;;
14847;SDS011;7516;43.570;1.448;2022-12-05T13:30:20;4.57;;;2.80;;
14847;SDS011;7516;43.570;1.448;2022-12-05T13:32:54;6.07;;;3.00;;
14847;SDS011;7516;43.570;1.448;2022-12-05T13:35:27;5.05;;;3.30;;
14847;SDS011;7516;43.570;1.448;2022-12-05T13:38:19;4.40;;;3.30;;
14847;SDS011;7516;43.570;1.448;2022-12-05T13:41:07;3.87;;;3.20;;
14847;SDS011;7516;43.570;1.448;2022-12-05T13:43:52;4.32;;;3.50;;
14847;SDS011;7516;43.570;1.448;2022-12-05T13:46:22;5.57;;;2.73;;
14847;SDS011;7516;43.570;1.448;2022-12-05T13:48:57;4.57;;;3.50;;
14847;SDS011;7516;43.570;1.448;2022-12-05T13:51:29;8.03;;;3.50;;
14847;SDS011;7516;43.570;1.448;2022-12-05T13:54:00;4.77;;;3.33;;
14847;SDS011;7516;43.570;1.448;2022-12-05T13:56:47;6.23;;;3.23;;
14847;SDS011;7516;43.570;1.448;2022-12-05T14:08:01;5.07;;;3.10;;
14847;SDS011;7516;43.570;1.448;2022-12-05T14:11:12;4.97;;;3.57;;
14847;SDS011;7516;43.570;1.448;2022-12-05T14:13:42;6.60;;;4.00;;
14847;SDS011;7516;43.570;1.448;2022-12-05T14:22:25;7.43;;;5.03;;
14847;SDS011;7516;43.570;1.448;2022-12-05T14:25:11;4.90;;;3.60;;
14847;SDS011;7516;43.570;1.448;2022-12-05T14:27:49;4.60;;;3.27;;
14847;SDS011;7516;43.570;1.448;2022-12-05T14:30:24;6.23;;;4.07;;
14847;SDS011;7516;43.570;1.448;2022-12-05T14:33:01;4.67;;;3.20;;
14847;SDS011;7516;43.570;1.448;2022-12-05T14:35:39;5.63;;;3.50;;
14847;SDS011;7516;43.570;1.448;2022-12-05T14:38:17;6.50;;;3.77;;
14847;SDS011;7516;43.570;1.448;2022-12-05T14:40:48;5.47;;;4.17;;
14847;SDS011;7516;43.570;1.448;2022-12-05T14:43:17;6.27;;;3.50;;
14847;SDS011;7516;43.570;1.448;2022-12-05T14:45:55;4.80;;;3.50;;
14847;SDS011;7516;43.570;1.448;2022-12-05T14:48:27;4.57;;;3.67;;
14847;SDS011;7516;43.570;1.448;2022-12-05T14:50:57;4.67;;;3.60;;
14847;SDS011;7516;43.570;1.448;2022-12-05T14:53:32;5.27;;;3.77;;
14847;SDS011;7516;43.570;1.448;2022-12-05T14:56:05;4.40;;;3.67;;
14847;SDS011;7516;43.570;1.448;2022-12-05T14:58:41;5.67;;;3.57;;
14847;SDS011;7516;43.570;1.448;2022-12-05T15:01:22;5.40;;;3.50;;
14847;SDS011;7516;43.570;1.448;2022-12-05T15:04:02;6.00;;;3.37;;
14847;SDS011;7516;43.570;1.448;2022-12-05T15:06:34;4.43;;;3.47;;
14847;SDS011;7516;43.570;1.448;2022-12-05T15:09:13;4.43;;;3.23;;
14847;SDS011;7516;43.570;1.448;2022-12-05T15:12:09;6.10;;;3.50;;
14847;SDS011;7516;43.570;1.448;2022-12-05T15:14:42;4.30;;;3.23;;
14847;SDS011;7516;43.570;1.448;2022-12-05T15:17:16;6.37;;;4.50;;
14847;SDS011;7516;43.570;1.448;2022-12-05T15:19:50;7.73;;;5.10;;
14847;SDS011;7516;43.570;1.448;2022-12-05T15:22:22;6.77;;;4.53;;
14847;SDS011;7516;43.570;1.448;2022-12-05T15:24:53;7.97;;;4.80;;
14847;SDS011;7516;43.570;1.448;2022-12-05T15:27:20;7.87;;;4.97;;
14847;SDS011;7516;43.570;1.448;2022-12-05T15:29:48;7.20;;;4.60;;
14847;SDS011;7516;43.570;1.448;2022-12-05T15:32:22;7.00;;;4.97;;
14847;SDS011;7516;43.570;1.448;2022-12-05T15:34:52;7.20;;;5.33;;
14847;SDS011;7516;43.570;1.448;2022-12-05T15:37:26;8.53;;;5.40;;
14847;SDS011;7516;43.570;1.448;2022-12-05T15:40:00;7.43;;;5.47;;
14847;SDS011;7516;43.570;1.448;2022-12-05T15:42:35;7.60;;;4.97;;
14847;SDS011;7516;43.570;1.448;2022-12-05T15:45:17;7.70;;;5.57;;